Time;durP1;ratioP1;P1;durP2;ratioP2;P2;SDS_P1;SDS_P2;PMS_P1;PMS_P2;Temp;Humidity;BMP_temperature;BMP_pressure;BME280_temperature;BME280_humidity;BME280_pressure;Samples;Min_cycle;Max_cycle;Signal;HPM_P1;HPM_P2
2021/08/28 00:01:26;;;;;;;26.33;7.32;;;;;;;22.49;44.90;101859.09;4428864;32;20065;-67
2021/08/28 00:03:52;;;;;;;22.50;6.50;;;;;;;22.67;44.54;101864.66;4427099;32;20200;-67
2021/08/28 00:06:18;;;;;;;19.15;6.65;;;;;;;22.70;44.36;101864.44;4428016;32;20049;-67
2021/08/28 00:08:43;;;;;;;19.98;7.32;;;;;;;22.60;44.67;101874.44;4423805;32;20069;-67
2021/08/28 00:11:09;;;;;;;15.55;6.10;;;;;;;22.73;44.40;101865.53;4424770;32;20477;-67
2021/08/28 00:13:35;;;;;;;18.85;7.30;;;;;;;22.70;44.35;101875.16;4429335;32;20033;-67
2021/08/28 00:16:01;;;;;;;19.02;7.10;;;;;;;22.68;44.24;101869.09;4426691;32;20502;-68
2021/08/28 00:18:27;;;;;;;20.23;6.40;;;;;;;22.78;44.13;101871.38;4427350;32;20077;-67
2021/08/28 00:20:52;;;;;;;15.48;6.47;;;;;;;22.76;44.13;101873.94;4426998;32;20088;-67
2021/08/28 00:23:18;;;;;;;23.00;6.53;;;;;;;22.75;44.22;101860.87;4425964;32;20058;-67
2021/08/28 00:25:44;;;;;;;18.62;6.60;;;;;;;22.73;44.12;101871.28;4425001;32;20070;-67
2021/08/28 00:28:10;;;;;;;19.10;6.87;;;;;;;22.72;44.24;101867.63;4428041;32;20042;-67
2021/08/28 00:30:35;;;;;;;21.60;6.55;;;;;;;22.76;44.26;101868.19;4426787;32;20034;-67
2021/08/28 00:33:17;;;;;;;21.20;6.80;;;;;;;22.65;44.33;101865.16;4426809;32;20060;-67
2021/08/28 00:35:43;;;;;;;17.08;6.43;;;;;;;23.02;43.67;101872.03;4426286;32;20061;-67
2021/08/28 00:38:10;;;;;;;18.45;6.32;;;;;;;22.93;43.85;101874.22;4425715;32;20420;-67
2021/08/28 00:40:37;;;;;;;19.20;6.65;;;;;;;23.05;43.73;101870.25;4427446;32;20077;-67
2021/08/28 00:43:03;;;;;;;19.70;6.62;;;;;;;23.03;43.78;101869.94;4424765;32;20034;-67
2021/08/28 00:45:31;;;;;;;20.60;7.12;;;;;;;22.95;43.75;101872.44;4426775;32;20065;-67
2021/08/28 00:48:04;;;;;;;18.70;6.82;;;;;;;23.10;43.48;101878.94;4428420;32;20080;-68
2021/08/28 00:50:30;;;;;;;18.52;6.45;;;;;;;23.25;43.00;101878.91;4424781;32;20061;-67
2021/08/28 00:52:56;;;;;;;15.85;6.47;;;;;;;23.11;43.21;101871.88;4428399;32;20033;-67
2021/08/28 00:55:24;;;;;;;18.77;7.12;;;;;;;23.16;43.09;101871.19;4428409;32;20430;-68
2021/08/28 00:57:51;;;;;;;16.33;6.30;;;;;;;23.37;42.91;101863.44;4427083;32;20021;-67
2021/08/28 01:00:17;;;;;;;17.52;5.57;;;;;;;23.43;42.79;101864.31;4427882;32;20085;-67
2021/08/28 01:02:47;;;;;;;20.30;6.30;;;;;;;23.43;42.81;101870.06;4428303;32;20565;-68
2021/08/28 01:10:46;;;;;;;15.52;5.65;;;;;;;24.13;41.69;101862.03;3986502;32;15024813;-67
2021/08/28 01:13:15;;;;;;;21.52;6.12;;;;;;;24.14;41.68;101855.06;4435646;32;20369;-68
2021/08/28 01:15:43;;;;;;;17.52;5.97;;;;;;;23.78;41.98;101858.50;4436956;32;20072;-68
2021/08/28 01:18:11;;;;;;;21.25;6.40;;;;;;;23.69;42.14;101861.53;4438412;32;20435;-68
2021/08/28 01:23:15;;;;;;;19.62;6.12;;;;;;;24.12;41.49;101869.94;3972840;32;15023237;-68
2021/08/28 01:25:43;;;;;;;15.85;5.68;;;;;;;24.12;41.49;101869.94;4422502;32;20064;-66
2021/08/28 01:28:11;;;;;;;17.17;5.68;;;;;;;23.77;42.00;101865.56;4418064;32;20097;-68
2021/08/28 01:30:41;;;;;;;16.60;6.20;;;;;;;23.76;41.98;101869.72;4422887;32;20378;-68
2021/08/28 01:33:07;;;;;;;16.70;6.00;;;;;;;23.97;41.58;101877.06;4420122;32;20412;-68
2021/08/28 01:35:34;;;;;;;14.48;5.40;;;;;;;23.78;41.90;101873.69;4417053;32;20041;-68
2021/08/28 01:38:01;;;;;;;16.67;5.80;;;;;;;23.86;41.72;101868.25;4420430;32;20044;-68
2021/08/28 01:40:28;;;;;;;18.17;5.30;;;;;;;23.91;41.53;101876.19;4419924;32;20415;-68
2021/08/28 01:42:55;;;;;;;21.08;5.97;;;;;;;24.03;41.42;101875.03;4419346;32;20046;-68
2021/08/28 01:45:23;;;;;;;17.33;5.53;;;;;;;24.03;41.02;101869.28;4420481;32;20025;-68
2021/08/28 01:47:50;;;;;;;22.15;6.90;;;;;;;24.27;40.98;101873.47;4420330;32;20158;-68
2021/08/28 01:50:19;;;;;;;14.02;5.93;;;;;;;24.14;41.14;101867.31;4416580;32;20049;-68
2021/08/28 01:52:47;;;;;;;12.32;5.87;;;;;;;24.33;40.70;101873.56;4423007;32;20074;-68
2021/08/28 01:55:13;;;;;;;23.48;6.85;;;;;;;24.27;40.91;101866.97;4424601;32;20069;-68
2021/08/28 01:57:39;;;;;;;17.67;5.55;;;;;;;24.18;40.91;101876.53;4420878;32;20096;-68
2021/08/28 02:00:05;;;;;;;20.33;6.40;;;;;;;24.25;40.88;101867.47;4422779;32;20034;-68
2021/08/28 02:02:31;;;;;;;22.33;6.40;;;;;;;24.27;40.73;101864.09;4419458;32;20034;-68
2021/08/28 02:04:58;;;;;;;15.35;5.97;;;;;;;24.23;40.79;101867.16;4421919;32;20450;-68
2021/08/28 02:07:34;;;;;;;18.55;5.25;;;;;;;24.24;41.08;101868.75;4419921;32;20084;-68
2021/08/28 02:12:47;;;;;;;25.30;5.45;;;;;;;24.91;40.09;101870.22;3989800;32;15026972;-68
2021/08/28 02:15:20;;;;;;;25.45;5.40;;;;;;;24.91;40.09;101870.22;4441383;32;20116;-68
2021/08/28 02:18:25;;;;;;;21.42;6.35;;;;;;;24.59;40.31;101874.34;4440802;32;20392;-68
2021/08/28 02:20:58;;;;;;;22.58;5.97;;;;;;;24.60;40.21;101870.94;4438883;32;20447;-68
2021/08/28 02:23:31;;;;;;;25.00;5.85;;;;;;;24.56;40.35;101876.16;4439880;32;20098;-68
2021/08/28 02:26:19;;;;;;;20.48;6.22;;;;;;;24.62;40.42;101873.31;4438643;32;20061;-68
2021/08/28 02:28:51;;;;;;;19.23;6.22;;;;;;;24.29;40.58;101872.97;4441819;32;20413;-68
2021/08/28 02:31:21;;;;;;;15.95;5.30;;;;;;;24.34;40.81;101870.19;4438348;32;20072;-68
2021/08/28 02:33:48;;;;;;;19.05;6.87;;;;;;;24.39;40.80;101872.31;4442566;32;20494;-68
2021/08/28 02:36:14;;;;;;;18.80;6.22;;;;;;;24.47;40.73;101872.62;4439961;32;20056;-68
2021/08/28 02:38:42;;;;;;;13.35;5.28;;;;;;;24.61;40.41;101875.41;4442350;32;20055;-68
2021/08/28 02:41:08;;;;;;;12.82;5.20;;;;;;;24.58;40.47;101876.41;4440394;32;20111;-68
2021/08/28 02:43:35;;;;;;;18.23;6.22;;;;;;;24.57;40.45;101876.91;4440986;32;20025;-68
2021/08/28 02:46:01;;;;;;;13.20;6.03;;;;;;;24.47;40.45;101870.56;4440343;32;20447;-68
2021/08/28 02:48:30;;;;;;;17.08;7.28;;;;;;;24.40;40.57;101873.09;4440870;32;21197;-68
2021/08/28 02:51:00;;;;;;;22.90;6.70;;;;;;;24.24;40.88;101862.97;4439129;32;20052;-68
2021/08/28 02:53:26;;;;;;;17.52;5.93;;;;;;;24.44;40.56;101871.56;4441521;32;20139;-68
2021/08/28 02:55:53;;;;;;;21.58;6.50;;;;;;;24.10;41.11;101866.78;4440446;32;20026;-68
2021/08/28 02:58:21;;;;;;;22.33;5.97;;;;;;;23.98;41.50;101870.00;4442276;32;20511;-68
2021/08/28 03:00:48;;;;;;;15.70;5.60;;;;;;;24.28;40.92;101872.19;4439169;32;20061;-68
2021/08/28 03:03:15;;;;;;;17.12;6.05;;;;;;;24.21;40.88;101872.62;4441012;32;20053;-68
2021/08/28 03:05:44;;;;;;;17.30;6.18;;;;;;;24.39;40.71;101874.41;4438405;32;20102;-68
2021/08/28 03:08:12;;;;;;;20.77;5.87;;;;;;;24.30;40.77;101872.47;4439940;32;20037;-68
2021/08/28 03:10:38;;;;;;;18.62;7.22;;;;;;;24.19;41.04;101875.25;4441849;32;20113;-68
2021/08/28 03:13:04;;;;;;;23.48;6.78;;;;;;;24.18;40.99;101878.63;4439054;32;20034;-68
2021/08/28 03:15:31;;;;;;;16.52;6.80;;;;;;;24.12;40.98;101877.75;4440718;32;20044;-68
2021/08/28 03:17:57;;;;;;;20.77;6.93;;;;;;;24.26;40.81;101873.97;4440900;32;20081;-68
2021/08/28 03:20:24;;;;;;;17.35;6.53;;;;;;;24.21;40.78;101884.13;4439630;32;20030;-68
2021/08/28 03:22:50;;;;;;;22.13;6.55;;;;;;;24.40;40.50;101873.09;4436876;32;20403;-68
2021/08/28 03:25:17;;;;;;;21.87;7.12;;;;;;;24.35;40.68;101880.38;4428879;32;20048;-68
2021/08/28 03:27:43;;;;;;;21.95;6.55;;;;;;;24.27;40.72;101878.47;4428287;32;20052;-68
2021/08/28 03:30:12;;;;;;;21.20;6.85;;;;;;;24.35;40.42;101879.56;4431044;32;20042;-68
2021/08/28 03:32:41;;;;;;;19.80;6.22;;;;;;;24.48;40.34;101877.13;4430793;32;20033;-68
2021/08/28 03:35:09;;;;;;;26.50;6.95;;;;;;;24.47;40.17;101878.41;4430132;32;20422;-68
2021/08/28 03:37:36;;;;;;;19.42;6.87;;;;;;;24.48;40.30;101882.88;4425892;32;20033;-68
2021/08/28 03:40:02;;;;;;;21.60;6.40;;;;;;;24.55;40.15;101880.34;4432331;32;20468;-68
2021/08/28 03:42:28;;;;;;;17.58;6.30;;;;;;;24.43;40.27;101872.88;4430560;32;20056;-68
2021/08/28 03:44:57;;;;;;;18.67;6.32;;;;;;;24.32;40.29;101875.62;4432045;32;20042;-68
2021/08/28 03:47:23;;;;;;;20.17;6.12;;;;;;;24.55;40.00;101880.34;4430815;32;20092;-68
2021/08/28 03:49:49;;;;;;;23.15;6.75;;;;;;;24.37;40.40;101877.00;4425436;32;20069;-68
2021/08/28 03:52:14;;;;;;;17.27;6.28;;;;;;;24.21;40.52;101884.13;4429632;32;20360;-69
2021/08/28 03:54:40;;;;;;;21.73;5.93;;;;;;;24.07;40.75;101873.53;4428027;32;20027;-68
2021/08/28 03:57:06;;;;;;;20.92;6.07;;;;;;;24.06;40.81;101877.72;4431561;32;20025;-68
2021/08/28 03:59:31;;;;;;;15.48;6.05;;;;;;;23.98;41.03;101873.69;4424337;32;20046;-68
2021/08/28 04:01:57;;;;;;;19.60;6.05;;;;;;;23.90;41.15;101881.13;4429560;32;20057;-68
2021/08/28 04:04:23;;;;;;;18.40;6.00;;;;;;;23.84;41.43;101882.38;4428898;32;20524;-68
2021/08/28 04:06:48;;;;;;;19.67;6.47;;;;;;;23.78;41.53;101876.56;4429879;32;20132;-68
2021/08/28 04:09:14;;;;;;;17.70;5.55;;;;;;;23.74;41.66;101878.06;4430152;32;20166;-68
2021/08/28 04:11:39;;;;;;;18.87;6.50;;;;;;;23.84;41.33;101873.75;4428806;32;20050;-68
2021/08/28 04:14:05;;;;;;;18.75;6.22;;;;;;;23.87;41.37;101875.59;4430625;32;20423;-68
2021/08/28 04:16:31;;;;;;;14.95;5.50;;;;;;;23.96;41.23;101870.50;4428670;32;20052;-68
2021/08/28 04:18:58;;;;;;;15.18;5.75;;;;;;;23.94;41.36;101875.97;4429708;32;20088;-68
2021/08/28 04:21:23;;;;;;;20.62;6.43;;;;;;;23.87;41.35;101873.50;4427465;32;20081;-68
2021/08/28 04:23:49;;;;;;;26.15;6.32;;;;;;;23.80;41.48;101868.19;4431317;32;20503;-69
2021/08/28 04:26:15;;;;;;;19.77;6.28;;;;;;;23.67;41.84;101875.59;4426095;32;20052;-68
2021/08/28 04:28:41;;;;;;;21.23;5.55;;;;;;;23.57;41.96;101869.22;4430424;32;20086;-68
2021/08/28 04:31:07;;;;;;;16.52;5.95;;;;;;;23.44;42.19;101877.41;4429050;32;20033;-68
2021/08/28 04:33:33;;;;;;;17.25;5.40;;;;;;;23.64;41.93;101876.59;4429161;32;20017;-68
2021/08/28 04:35:59;;;;;;;15.15;5.47;;;;;;;23.48;42.36;101875.88;4427165;32;20088;-68
2021/08/28 04:38:25;;;;;;;17.20;5.43;;;;;;;23.73;41.88;101873.59;4430961;32;20096;-68
2021/08/28 04:40:53;;;;;;;19.70;5.50;;;;;;;23.82;41.75;101879.19;4429059;32;20100;-68
2021/08/28 04:43:20;;;;;;;25.35;6.37;;;;;;;23.88;41.56;101880.06;4421204;32;20421;-68
2021/08/28 04:45:47;;;;;;;16.45;5.32;;;;;;;23.95;41.50;101880.44;4429459;32;20116;-68
2021/08/28 04:48:13;;;;;;;15.68;4.85;;;;;;;23.84;41.46;101880.25;4430093;32;20461;-68
2021/08/28 04:50:38;;;;;;;17.35;5.12;;;;;;;24.01;41.27;101881.31;4426431;32;20111;-68
2021/08/28 04:53:05;;;;;;;21.60;4.95;;;;;;;24.12;40.93;101886.41;4426731;32;20038;-68
2021/08/28 04:55:31;;;;;;;19.70;5.25;;;;;;;24.04;41.11;101885.25;4428678;32;20057;-68
2021/08/28 04:57:56;;;;;;;16.95;4.65;;;;;;;24.20;40.65;101882.56;4430408;32;20118;-68
2021/08/28 05:00:22;;;;;;;11.73;4.65;;;;;;;24.27;40.61;101890.75;4428196;32;20045;-68
2021/08/28 05:02:48;;;;;;;13.52;4.97;;;;;;;24.32;40.58;101887.16;4426319;32;20037;-68
2021/08/28 05:05:13;;;;;;;10.60;4.25;;;;;;;24.36;40.41;101887.69;4428297;32;20923;-68
2021/08/28 05:07:39;;;;;;;14.98;4.80;;;;;;;24.43;40.22;101893.03;4430486;32;20026;-68
2021/08/28 05:10:05;;;;;;;21.33;4.93;;;;;;;24.44;40.10;101888.84;4429899;32;20037;-68
2021/08/28 05:12:31;;;;;;;15.90;4.93;;;;;;;24.46;40.08;101892.03;4426898;32;20453;-68
2021/08/28 05:14:56;;;;;;;19.23;4.37;;;;;;;24.29;40.22;101885.28;4425034;32;20125;-68
2021/08/28 05:17:23;;;;;;;20.70;5.22;;;;;;;24.33;40.14;101887.94;4429182;32;20854;-67
2021/08/28 05:19:49;;;;;;;13.52;4.55;;;;;;;24.27;40.41;101895.72;4427927;32;20072;-68
2021/08/28 05:22:15;;;;;;;20.65;5.18;;;;;;;24.39;40.17;101895.31;4428527;32;20030;-68
2021/08/28 05:24:40;;;;;;;20.80;5.20;;;;;;;24.51;40.03;101896.25;4427392;32;20029;-68
2021/08/28 05:27:06;;;;;;;21.25;4.95;;;;;;;24.51;39.99;101902.00;4431114;32;20421;-68
2021/08/28 05:29:34;;;;;;;15.18;5.82;;;;;;;24.28;40.35;101897.28;4427224;32;20461;-68
2021/08/28 05:31:59;;;;;;;31.98;6.80;;;;;;;24.36;40.19;101895.56;4428686;32;20152;-68
2021/08/28 05:34:25;;;;;;;18.12;4.68;;;;;;;24.27;40.29;101902.25;4426262;32;20033;-68
2021/08/28 05:36:51;;;;;;;14.73;4.12;;;;;;;24.13;40.39;101887.97;4426542;32;20493;-68
2021/08/28 05:39:16;;;;;;;15.65;4.75;;;;;;;24.04;40.72;101896.75;4427852;32;20065;-68
2021/08/28 05:41:42;;;;;;;21.85;5.05;;;;;;;23.89;40.91;101899.69;4427741;32;20507;-68
2021/08/28 05:44:08;;;;;;;17.37;5.50;;;;;;;23.89;41.12;101898.88;4428910;32;20388;-68
2021/08/28 05:46:33;;;;;;;20.12;6.07;;;;;;;23.86;41.16;101903.56;4426534;32;20109;-68
2021/08/28 05:48:59;;;;;;;10.85;4.53;;;;;;;23.93;41.20;101910.97;4429353;32;20070;-68
2021/08/28 05:51:25;;;;;;;12.93;4.78;;;;;;;23.88;41.21;101906.75;4422291;32;20126;-68
2021/08/28 05:53:50;;;;;;;19.83;5.85;;;;;;;23.93;41.19;101908.88;4423127;32;20086;-68
2021/08/28 05:56:16;;;;;;;16.00;4.70;;;;;;;23.84;41.17;101905.38;4428102;32;20513;-68
2021/08/28 05:58:42;;;;;;;14.13;4.85;;;;;;;23.86;nan;101917.94;4429110;32;20026;-68
2021/08/28 06:01:07;;;;;;;19.25;4.57;;;;;;;23.90;41.25;101918.50;4427717;32;20076;-68
2021/08/28 06:03:33;;;;;;;25.08;5.50;;;;;;;23.96;41.17;101912.88;4428810;32;20061;-68
2021/08/28 06:05:59;;;;;;;16.45;4.93;;;;;;;23.81;41.51;101912.94;4428343;32;20384;-68
2021/08/28 06:08:24;;;;;;;16.10;5.57;;;;;;;23.79;41.37;101921.25;4427399;32;20042;-68
2021/08/28 06:10:50;;;;;;;16.35;5.68;;;;;;;24.27;40.69;101922.38;4422235;32;20113;-68
2021/08/28 06:13:16;;;;;;;15.88;4.62;;;;;;;24.43;40.14;101921.81;4427338;32;20135;-68
2021/08/28 06:15:41;;;;;;;12.15;4.28;;;;;;;24.60;40.04;101921.97;4428345;32;20547;-68
2021/08/28 06:18:07;;;;;;;18.50;5.15;;;;;;;24.78;39.62;101928.19;4425648;32;20123;-68
2021/08/28 06:20:32;;;;;;;12.05;4.55;;;;;;;24.85;39.27;101930.62;4426720;32;20037;-68
2021/08/28 06:22:59;;;;;;;15.90;4.55;;;;;;;25.16;38.69;101921.22;4428603;32;20021;-68
2021/08/28 06:25:24;;;;;;;16.85;4.43;;;;;;;25.29;38.23;101927.31;4421235;32;20420;-68
2021/08/28 06:27:50;;;;;;;13.43;4.35;;;;;;;25.47;37.93;101932.72;4430161;32;20435;-68
2021/08/28 06:30:16;;;;;;;18.67;4.03;;;;;;;25.47;37.79;101926.97;4425048;32;20098;-68
2021/08/28 06:32:42;;;;;;;14.52;4.45;;;;;;;25.69;37.64;101932.06;4428209;32;20044;-68
2021/08/28 06:35:08;;;;;;;16.52;4.35;;;;;;;25.66;37.39;101936.78;4426676;32;20211;-68
2021/08/28 06:37:34;;;;;;;17.35;4.47;;;;;;;25.96;37.19;101931.44;4427890;32;20184;-68
2021/08/28 06:40:00;;;;;;;13.95;4.85;;;;;;;25.79;36.97;101928.44;4423506;32;20042;-68
2021/08/28 06:42:26;;;;;;;23.23;4.18;;;;;;;25.69;37.15;101932.06;4426428;32;20138;-68
2021/08/28 06:44:51;;;;;;;19.62;4.20;;;;;;;25.74;37.18;101931.31;4426478;32;20053;-68
2021/08/28 06:47:17;;;;;;;20.90;4.55;;;;;;;25.99;36.83;101927.53;4428590;32;20124;-68
2021/08/28 06:49:42;;;;;;;14.95;4.70;;;;;;;26.14;36.29;101926.00;4426979;32;20041;-67
2021/08/28 06:52:08;;;;;;;10.30;4.05;;;;;;;26.22;36.22;101940.72;4426355;32;20105;-68
2021/08/28 06:54:34;;;;;;;15.65;3.85;;;;;;;26.24;36.13;101929.47;4428024;32;20131;-70
2021/08/28 06:57:00;;;;;;;15.57;4.05;;;;;;;26.32;35.86;101936.31;4425501;32;20097;-67
2021/08/28 06:59:25;;;;;;;13.50;3.55;;;;;;;26.25;36.13;101933.91;4429642;32;20422;-67
2021/08/28 07:01:51;;;;;;;13.52;3.60;;;;;;;26.60;35.87;101946.62;4427394;32;20432;-67
2021/08/28 07:04:17;;;;;;;15.18;3.87;;;;;;;26.67;35.42;101939.59;4429925;32;20091;-67
2021/08/28 07:06:43;;;;;;;10.57;3.53;;;;;;;26.68;35.35;101939.06;4429053;32;20038;-67
2021/08/28 07:09:10;;;;;;;13.60;3.90;;;;;;;26.95;34.71;101946.19;4430502;32;20114;-67
2021/08/28 07:11:38;;;;;;;13.52;3.75;;;;;;;26.81;34.96;101945.13;4426598;32;20116;-67
2021/08/28 07:14:03;;;;;;;18.02;4.18;;;;;;;26.67;35.27;101949.03;4432507;32;20126;-67
2021/08/28 07:16:29;;;;;;;14.02;4.65;;;;;;;26.98;34.97;101953.81;4429847;32;20030;-67
2021/08/28 07:18:55;;;;;;;15.20;3.70;;;;;;;26.96;34.79;101950.62;4429971;32;20104;-67
2021/08/28 07:21:21;;;;;;;12.40;3.72;;;;;;;27.09;34.60;101953.81;4429223;32;20128;-67
2021/08/28 07:23:47;;;;;;;11.43;3.78;;;;;;;27.16;34.45;101941.72;4429453;32;20086;-67
2021/08/28 07:26:14;;;;;;;12.93;3.05;;;;;;;27.39;34.20;101946.19;4428828;32;20113;-67
2021/08/28 07:28:40;;;;;;;11.57;3.75;;;;;;;27.78;33.80;101946.91;4431205;32;20101;-67
2021/08/28 07:31:06;;;;;;;11.52;3.17;;;;;;;27.56;34.03;101946.97;4425913;32;20069;-67
2021/08/28 07:33:31;;;;;;;16.08;3.50;;;;;;;27.92;33.29;101950.84;4427760;32;20086;-67
2021/08/28 07:35:58;;;;;;;15.93;3.65;;;;;;;27.72;33.33;101954.00;4429821;32;20133;-67
2021/08/28 07:38:23;;;;;;;11.38;3.47;;;;;;;27.97;33.39;101956.59;4427146;32;20049;-67
2021/08/28 07:40:49;;;;;;;13.98;3.83;;;;;;;28.03;33.49;101956.56;4429584;32;20041;-67
2021/08/28 07:43:15;;;;;;;13.80;3.75;;;;;;;27.99;33.32;101942.41;4429047;32;20085;-67
2021/08/28 07:45:40;;;;;;;14.15;3.20;;;;;;;27.89;33.41;101949.78;4428217;32;20117;-67
2021/08/28 07:48:06;;;;;;;14.68;4.00;;;;;;;27.98;33.45;101951.63;4430011;32;20441;-67
2021/08/28 07:50:32;;;;;;;11.77;3.55;;;;;;;28.15;33.10;101949.44;4429236;32;20081;-67
2021/08/28 07:52:58;;;;;;;19.62;4.82;;;;;;;28.36;32.72;101956.44;4429180;32;20471;-67
2021/08/28 07:55:26;;;;;;;17.20;4.47;;;;;;;28.28;32.87;101950.41;4430852;32;20134;-68
2021/08/28 07:57:52;;;;;;;15.43;3.75;;;;;;;28.01;33.70;101948.44;4430518;32;20157;-67
2021/08/28 08:00:18;;;;;;;17.08;4.30;;;;;;;28.07;33.43;101948.44;4429139;32;20076;-67
2021/08/28 08:02:43;;;;;;;15.90;4.00;;;;;;;28.15;33.53;101950.22;4429587;32;20456;-67
2021/08/28 08:05:09;;;;;;;13.27;4.18;;;;;;;27.85;33.90;101940.56;4430485;32;20042;-67
2021/08/28 08:07:35;;;;;;;16.05;3.78;;;;;;;27.66;34.24;101936.69;4431318;32;20072;-68
2021/08/28 08:10:01;;;;;;;14.82;4.00;;;;;;;27.36;34.78;101940.69;4430773;32;20060;-67
2021/08/28 08:12:27;;;;;;;15.68;4.65;;;;;;;27.23;35.19;101936.19;4426969;32;20162;-67
2021/08/28 08:14:52;;;;;;;18.02;4.47;;;;;;;27.20;35.09;101933.56;4429923;32;20046;-67
2021/08/28 08:17:18;;;;;;;17.35;4.00;;;;;;;27.12;35.41;101935.44;4427991;32;20068;-68
2021/08/28 08:19:44;;;;;;;14.82;3.35;;;;;;;27.17;35.34;101934.63;4430154;32;21016;-68
2021/08/28 08:22:10;;;;;;;9.77;3.22;;;;;;;27.08;35.46;101937.78;4427213;32;20393;-67
2021/08/28 08:24:35;;;;;;;14.60;3.83;;;;;;;27.07;35.48;101933.31;4431202;32;20030;-68
2021/08/28 08:27:01;;;;;;;11.05;2.87;;;;;;;27.23;35.33;101935.41;4428765;32;20038;-67
2021/08/28 08:29:27;;;;;;;14.30;3.30;;;;;;;27.25;35.11;101938.59;4430062;32;20344;-67
2021/08/28 08:31:53;;;;;;;11.00;3.20;;;;;;;27.02;35.72;101934.87;4426813;32;20069;-67
2021/08/28 08:34:20;;;;;;;10.07;3.72;;;;;;;27.36;35.09;101934.91;4431799;32;20085;-67
2021/08/28 08:36:46;;;;;;;20.37;3.67;;;;;;;27.85;34.49;101940.56;4428066;32;20093;-67
2021/08/28 08:39:13;;;;;;;9.73;3.20;;;;;;;27.98;34.33;101943.69;4430050;32;20057;-67
2021/08/28 08:41:41;;;;;;;14.73;2.97;;;;;;;28.08;34.07;101945.00;4430192;32;20474;-67
2021/08/28 08:44:09;;;;;;;16.58;4.65;;;;;;;28.76;32.98;101947.81;4429223;32;20374;-68
2021/08/28 08:46:37;;;;;;;10.98;3.00;;;;;;;29.17;32.40;101944.09;4428709;32;20460;-68
2021/08/28 08:49:04;;;;;;;12.15;3.75;;;;;;;29.73;31.67;101942.25;4425200;32;20068;-68
2021/08/28 08:51:34;;;;;;;9.55;3.33;;;;;;;29.75;31.48;101945.37;4426024;32;20038;-68
2021/08/28 08:54:01;;;;;;;10.90;3.12;;;;;;;29.78;31.16;101942.19;4429610;32;20553;-68
2021/08/28 08:56:27;;;;;;;11.52;3.42;;;;;;;30.01;30.82;101939.81;4428529;32;20066;-68
2021/08/28 08:58:53;;;;;;;12.27;3.28;;;;;;;29.83;31.14;101952.94;4430818;32;20116;-68
2021/08/28 09:01:19;;;;;;;12.02;3.42;;;;;;;29.78;31.06;101950.09;4428310;32;20060;-68
2021/08/28 09:03:45;;;;;;;11.68;3.05;;;;;;;30.25;30.70;101945.59;4430467;32;20022;-68
2021/08/28 09:06:10;;;;;;;15.05;3.58;;;;;;;30.44;30.33;101950.06;4422750;32;20045;-68
2021/08/28 09:08:36;;;;;;;12.13;3.87;;;;;;;30.81;29.69;101946.41;4429874;32;20118;-68
2021/08/28 09:11:02;;;;;;;7.32;2.78;;;;;;;30.78;29.47;101944.59;4428476;32;20443;-68
2021/08/28 09:13:28;;;;;;;10.95;3.00;;;;;;;30.90;29.23;101942.28;4422587;32;20077;-68
2021/08/28 09:15:57;;;;;;;10.95;3.25;;;;;;;30.01;30.76;101940.59;4429264;32;20470;-68
2021/08/28 09:18:24;;;;;;;8.63;2.72;;;;;;;30.76;29.81;101948.06;4426920;32;20045;-68
2021/08/28 09:20:50;;;;;;;8.40;3.42;;;;;;;31.10;29.44;101938.78;4428819;32;20042;-68
2021/08/28 09:23:19;;;;;;;10.48;3.25;;;;;;;31.00;29.29;101943.44;4426448;32;20041;-68
2021/08/28 09:25:49;;;;;;;7.97;2.85;;;;;;;31.46;28.71;101945.84;4428674;32;20077;-68
2021/08/28 09:28:16;;;;;;;10.10;2.95;;;;;;;30.87;29.35;101940.47;4425925;32;20033;-68
2021/08/28 09:30:45;;;;;;;8.35;2.70;;;;;;;30.65;29.69;101945.28;4427911;32;20065;-68
2021/08/28 09:33:14;;;;;;;13.52;3.10;;;;;;;30.73;29.64;101948.31;4426697;32;20021;-68
2021/08/28 09:35:46;;;;;;;8.35;2.75;;;;;;;30.97;29.35;101942.44;4408272;32;20151;-68
2021/08/28 09:38:14;;;;;;;12.45;3.78;;;;;;;31.10;28.90;101945.37;4426964;32;20076;-68
2021/08/28 09:40:43;;;;;;;10.13;2.72;;;;;;;30.89;29.37;101943.62;4429194;32;20075;-68
2021/08/28 09:43:16;;;;;;;12.85;3.53;;;;;;;31.40;28.52;101948.06;4428158;32;20071;-68
2021/08/28 09:45:43;;;;;;;10.52;2.78;;;;;;;31.05;28.94;101945.47;4428389;32;20042;-68
2021/08/28 09:48:11;;;;;;;12.13;3.30;;;;;;;30.73;29.18;101940.44;4421327;32;20073;-68
2021/08/28 09:50:39;;;;;;;11.80;3.80;;;;;;;31.01;29.10;101942.13;4429161;32;20069;-68
2021/08/28 09:53:08;;;;;;;12.00;3.53;;;;;;;31.64;28.48;101942.06;4426394;32;20073;-68
2021/08/28 09:55:36;;;;;;;7.95;2.90;;;;;;;32.06;27.75;101944.66;4426982;32;20075;-68
2021/08/28 09:58:03;;;;;;;9.63;3.15;;;;;;;32.09;27.38;101940.62;4424747;32;20445;-68
2021/08/28 10:00:31;;;;;;;11.30;3.10;;;;;;;32.25;27.16;101939.50;4421764;32;20033;-68
2021/08/28 10:03:03;;;;;;;8.40;3.17;;;;;;;32.88;26.27;101944.19;4426725;32;20434;-68
2021/08/28 10:05:31;;;;;;;9.82;3.25;;;;;;;33.30;25.69;101942.84;4430726;32;20130;-68
2021/08/28 10:07:59;;;;;;;10.23;3.00;;;;;;;33.75;25.34;101942.44;4426944;32;20379;-68
2021/08/28 10:10:25;;;;;;;10.57;3.05;;;;;;;34.18;24.71;101949.16;4429460;32;20091;-68
2021/08/28 10:12:52;;;;;;;13.50;3.10;;;;;;;33.81;24.95;101952.59;4428566;32;20046;-68
2021/08/28 10:15:19;;;;;;;9.68;3.35;;;;;;;33.93;24.72;101950.97;4428404;32;20081;-68
2021/08/28 10:17:46;;;;;;;11.63;3.85;;;;;;;33.77;24.74;101951.41;4419105;32;20081;-68
2021/08/28 10:20:12;;;;;;;7.75;3.30;;;;;;;32.72;25.87;101951.16;4428318;32;20034;-68
2021/08/28 10:22:42;;;;;;;8.82;3.10;;;;;;;32.58;26.23;101947.50;4428314;32;20062;-68
2021/08/28 10:25:12;;;;;;;10.63;3.35;;;;;;;32.77;25.77;101950.25;4430642;32;20116;-68
2021/08/28 10:27:39;;;;;;;11.10;3.58;;;;;;;33.00;25.36;101953.47;4429072;32;20077;-68
2021/08/28 10:30:07;;;;;;;6.50;2.87;;;;;;;33.04;25.62;101960.47;4427154;32;20050;-68
2021/08/28 10:32:33;;;;;;;11.40;3.40;;;;;;;33.95;24.35;101959.16;4428330;32;20041;-68
2021/08/28 10:34:59;;;;;;;6.43;2.72;;;;;;;33.07;25.58;101952.75;4425154;32;20378;-68
2021/08/28 10:37:24;;;;;;;8.05;2.90;;;;;;;33.86;24.68;101962.56;4428972;32;20336;-68
2021/08/28 10:39:51;;;;;;;10.75;3.00;;;;;;;33.59;24.45;101949.53;4429388;32;20495;-68
2021/08/28 10:42:19;;;;;;;8.98;3.08;;;;;;;32.98;25.10;101944.47;4430572;32;20081;-68
2021/08/28 10:44:48;;;;;;;6.72;2.53;;;;;;;33.12;25.03;101960.56;4432167;32;20273;-68
2021/08/28 10:47:15;;;;;;;9.18;2.85;;;;;;;33.79;24.25;101945.78;4431304;32;20050;-68
2021/08/28 10:49:46;;;;;;;13.00;3.33;;;;;;;34.32;24.18;101946.88;4430478;32;20142;-68
2021/08/28 10:52:21;;;;;;;8.27;2.95;;;;;;;35.06;23.07;101941.91;4428289;32;20456;-68
2021/08/28 10:55:07;;;;;;;6.40;2.75;;;;;;;35.75;22.33;101947.19;4431739;32;20423;-69
2021/08/28 10:57:33;;;;;;;6.18;2.75;;;;;;;36.14;21.55;101953.19;4426228;32;20434;-69
2021/08/28 11:02:58;;;;;;;9.30;3.47;;;;;;;36.68;20.71;101954.53;3989250;32;15025672;-69
2021/08/28 11:05:27;;;;;;;9.38;3.55;;;;;;;36.68;20.71;101954.53;4441814;32;20079;-68
2021/08/28 11:07:55;;;;;;;9.07;3.75;;;;;;;35.50;21.88;101946.25;4444174;32;20084;-68
2021/08/28 11:10:23;;;;;;;7.95;3.58;;;;;;;35.51;22.19;101948.59;4441075;32;20427;-68
2021/08/28 11:23:15;;;;;;;8.38;3.50;;;;;;;37.92;19.90;101953.25;3998394;31;15052957;-68
2021/08/28 11:25:45;;;;;;;9.75;3.22;;;;;;;37.92;19.90;101953.25;4457797;32;20095;-68
2021/08/28 11:28:11;;;;;;;7.85;3.40;;;;;;;38.04;19.35;101954.28;4459536;32;20508;-68
2021/08/28 11:30:54;;;;;;;8.20;3.55;;;;;;;38.05;19.49;101952.91;4458167;32;20080;-68
2021/08/28 11:35:59;;;;;;;5.95;2.87;;;;;;;38.72;18.55;101945.44;3987853;32;15023792;-68
2021/08/28 11:38:35;;;;;;;5.55;2.87;;;;;;;38.72;18.55;101945.44;4440678;32;20073;-68
2021/08/28 11:41:07;;;;;;;4.72;2.50;;;;;;;38.41;18.67;101950.16;4442018;32;20058;-68
2021/08/28 11:43:37;;;;;;;5.07;2.55;;;;;;;39.11;18.01;101943.50;4436289;32;20029;-68